Catalina King — WDC3343 — position and weather

sailwx.info

Track history (hours):
 
Tides and Currents Weather Stations Pressure Air Temp Water Temp Dewpoint Dewpoint Depression Visibility Wind Speed Wind Dir Waves Ship Positions

Catalina King

Owner: CATALINA CLASSIC CRUISES, INC., SAN DIEGO, CA. More information available from US FCC via Universal Licensing System and Coast Guard Vessel Documentation Center.

Last reported at 2017-Nov-17 21:56 UTC. Time now 2017-Nov-20 00:24 UTC.
Position N 33°39' W 118°12'.

Length 39 m; draft 3.3 m.

Type: Ship. MMSI: 367006280.

Date/timePositionNaut miles runAvg speedWind from/ knotsBaromVisibWave heightAir tempDewpointWater temp
2017-Nov-17 21:56N 33°39' W 118°12'0 0.1
2017-Nov-17 17:52N 33°39' W 118°12'6 0.1
2017-Nov-15 23:25N 33°45' W 118°12'4 9.7
2017-Nov-15 23:00N 33°41' W 118°11'611.9
2017-Nov-15 22:30N 33°36' W 118°15'611.9
2017-Nov-15 22:00N 33°31' W 118°18'612.1
2017-Nov-15 21:30N 33°25' W 118°21'2 1.7
2017-Nov-15 20:37N 33°24' W 118°22'111.2
2017-Nov-15 20:30N 33°23' W 118°21'0 0.3
2017-Nov-15 19:49N 33°23' W 118°21'611.2
2017-Nov-15 19:19N 33°28' W 118°18'412.1
2017-Nov-15 19:00N 33°31' W 118°16'612.1
2017-Nov-15 18:30N 33°37' W 118°14'611.8
2017-Nov-15 18:00N 33°42' W 118°11'3 0.1
2017-Nov-14 00:07N 33°45' W 118°12'0 1.6
2017-Nov-14 00:00N 33°45' W 118°11'510.5
2017-Nov-13 23:30N 33°40' W 118°13'612.3
2017-Nov-13 23:00N 33°36' W 118°18'712.0
2017-Nov-13 22:25N 33°31' W 118°24'512.0
2017-Nov-13 22:00N 33°28' W 118°29'22 1.0
2017-Nov-13 00:01N 33°45' W 118°12'0 0.0
2017-Nov-13 00:00N 33°45' W 118°12'0 0.0
2017-Nov-12 23:30N 33°45' W 118°12'0 0.0
2017-Nov-12 23:00N 33°45' W 118°12'1 1.6
2017-Nov-12 22:30N 33°45' W 118°11'611.4
2017-Nov-12 22:00N 33°39' W 118°12'612.0
2017-Nov-12 21:30N 33°34' W 118°16'611.9
2017-Nov-12 21:00N 33°29' W 118°19'5 5.8
2017-Nov-12 20:07N 33°24' W 118°22'1 7.5
2017-Nov-12 19:55N 33°23' W 118°21'0 0.3
2017-Nov-12 19:30N 33°23' W 118°21'611.7
2017-Nov-12 19:01N 33°28' W 118°19'712.1
2017-Nov-12 18:26N 33°34' W 118°15'510.6
2017-Nov-12 17:59N 33°39' W 118°13'0 0.0
2017-Nov-10 18:05N 33°39' W 118°13'6 0.1
2017-Nov-08 23:17N 33°45' W 118°11'511.5
2017-Nov-08 22:52N 33°40' W 118°12'612.3
2017-Nov-08 22:21N 33°35' W 118°15'711.7
2017-Nov-08 21:43N 33°28' W 118°20'211.8
2017-Nov-08 21:30N 33°26' W 118°21'3 1.6
2017-Nov-08 19:47N 33°23' W 118°21'312.0
2017-Nov-08 19:30N 33°26' W 118°19'612.1
2017-Nov-08 19:00N 33°32' W 118°16'  
Track history (hours):
 
Tides and Currents Weather Stations Pressure Air Temp Water Temp Dewpoint Dewpoint Depression Visibility Wind Speed Wind Dir Waves Ship Positions

Catalina King

Owner: CATALINA CLASSIC CRUISES, INC., SAN DIEGO, CA. More information available from US FCC via Universal Licensing System and Coast Guard Vessel Documentation Center.

Last reported at 2017-Nov-17 21:56 UTC. Time now 2017-Nov-20 00:24 UTC.
Position N 33°39' W 118°12'.

Length 39 m; draft 3.3 m.

Type: Ship. MMSI: 367006280.

Date/timePositionNaut miles runAvg speedWind from/ knotsBaromVisibWave heightAir tempDewpointWater temp
2017-Nov-17 21:56N 33°39' W 118°12'0 0.1
2017-Nov-17 17:52N 33°39' W 118°12'6 0.1
2017-Nov-15 23:25N 33°45' W 118°12'4 9.7
2017-Nov-15 23:00N 33°41' W 118°11'611.9
2017-Nov-15 22:30N 33°36' W 118°15'611.9
2017-Nov-15 22:00N 33°31' W 118°18'612.1
2017-Nov-15 21:30N 33°25' W 118°21'2 1.7
2017-Nov-15 20:37N 33°24' W 118°22'111.2
2017-Nov-15 20:30N 33°23' W 118°21'0 0.3
2017-Nov-15 19:49N 33°23' W 118°21'611.2
2017-Nov-15 19:19N 33°28' W 118°18'412.1
2017-Nov-15 19:00N 33°31' W 118°16'612.1
2017-Nov-15 18:30N 33°37' W 118°14'611.8
2017-Nov-15 18:00N 33°42' W 118°11'3 0.1
2017-Nov-14 00:07N 33°45' W 118°12'0 1.6
2017-Nov-14 00:00N 33°45' W 118°11'510.5
2017-Nov-13 23:30N 33°40' W 118°13'612.3
2017-Nov-13 23:00N 33°36' W 118°18'712.0
2017-Nov-13 22:25N 33°31' W 118°24'512.0
2017-Nov-13 22:00N 33°28' W 118°29'22 1.0
2017-Nov-13 00:01N 33°45' W 118°12'0 0.0
2017-Nov-13 00:00N 33°45' W 118°12'0 0.0
2017-Nov-12 23:30N 33°45' W 118°12'0 0.0
2017-Nov-12 23:00N 33°45' W 118°12'1 1.6
2017-Nov-12 22:30N 33°45' W 118°11'611.4
2017-Nov-12 22:00N 33°39' W 118°12'612.0
2017-Nov-12 21:30N 33°34' W 118°16'611.9
2017-Nov-12 21:00N 33°29' W 118°19'5 5.8
2017-Nov-12 20:07N 33°24' W 118°22'1 7.5
2017-Nov-12 19:55N 33°23' W 118°21'0 0.3
2017-Nov-12 19:30N 33°23' W 118°21'611.7
2017-Nov-12 19:01N 33°28' W 118°19'712.1
2017-Nov-12 18:26N 33°34' W 118°15'510.6
2017-Nov-12 17:59N 33°39' W 118°13'0 0.0
2017-Nov-10 18:05N 33°39' W 118°13'6 0.1
2017-Nov-08 23:17N 33°45' W 118°11'511.5
2017-Nov-08 22:52N 33°40' W 118°12'612.3
2017-Nov-08 22:21N 33°35' W 118°15'711.7
2017-Nov-08 21:43N 33°28' W 118°20'211.8
2017-Nov-08 21:30N 33°26' W 118°21'3 1.6
2017-Nov-08 19:47N 33°23' W 118°21'312.0
2017-Nov-08 19:30N 33°26' W 118°19'612.1
2017-Nov-08 19:00N 33°32' W 118°16'  

Dump ship's entire track history